createdAt,value
2022-11-24T00:02:02.323Z,33.30
2022-11-24T00:04:34.978Z,31.40
2022-11-24T00:07:07.155Z,31.70
2022-11-24T00:09:38.223Z,33.50
2022-11-24T00:12:06.141Z,30.80
2022-11-24T00:14:34.383Z,30.70
2022-11-24T00:17:07.850Z,32.70
2022-11-24T00:19:35.877Z,31.00
2022-11-24T00:22:03.974Z,29.30
2022-11-24T00:24:32.425Z,31.10
2022-11-24T00:27:04.288Z,29.90
2022-11-24T00:29:32.112Z,29.60
2022-11-24T00:32:00.146Z,29.10
2022-11-24T00:34:31.363Z,34.00
2022-11-24T00:37:03.642Z,33.80
2022-11-24T00:39:31.669Z,32.10
2022-11-24T00:41:59.731Z,33.20
2022-11-24T00:44:30.798Z,36.20
2022-11-24T00:47:03.451Z,36.50
2022-11-24T00:49:41.171Z,35.20
2022-11-24T00:52:09.354Z,37.40
2022-11-24T00:54:37.463Z,35.80
2022-11-24T00:57:05.503Z,39.90
2022-11-24T00:59:33.552Z,41.10
2022-11-24T01:02:01.610Z,40.70
2022-11-24T01:04:37.282Z,39.90
2022-11-24T01:07:05.849Z,41.70
2022-11-24T01:09:39.053Z,46.90
2022-11-24T01:12:07.125Z,43.10
2022-11-24T01:14:35.575Z,41.40
2022-11-24T01:17:07.597Z,38.60
2022-11-24T01:19:38.726Z,44.30
2022-11-24T01:22:06.659Z,40.80
2022-11-24T01:24:34.731Z,36.60
2022-11-24T01:27:11.928Z,36.90
2022-11-24T01:29:39.993Z,36.20
2022-11-24T01:32:07.870Z,35.80
2022-11-24T01:34:35.973Z,35.80
2022-11-24T01:37:07.900Z,33.70
2022-11-24T01:39:39.021Z,34.60
2022-11-24T01:42:11.924Z,34.20
2022-11-24T01:44:45.936Z,30.90
2022-11-24T01:47:42.370Z,30.40
2022-11-24T01:50:18.792Z,30.50
2022-11-24T01:52:57.135Z,29.40
2022-11-24T01:55:36.480Z,29.60
2022-11-24T01:58:26.321Z,30.60
2022-11-24T02:00:59.539Z,30.60
2022-11-24T02:03:35.721Z,31.30
2022-11-24T02:06:16.198Z,27.70
2022-11-24T02:09:08.622Z,30.80
2022-11-24T02:11:44.690Z,30.50
2022-11-24T02:14:19.360Z,29.50
2022-11-24T02:16:54.030Z,30.20
2022-11-24T02:19:49.145Z,30.40
2022-11-24T02:22:45.166Z,32.30
2022-11-24T02:25:27.729Z,30.40
2022-11-24T02:27:59.940Z,29.00
2022-11-24T02:30:28.085Z,28.20
2022-11-24T02:33:00.618Z,28.10
2022-11-24T02:35:33.890Z,30.00
2022-11-24T02:38:01.999Z,29.20
2022-11-24T02:40:35.040Z,28.90
2022-11-24T02:43:10.265Z,29.30
2022-11-24T02:45:38.388Z,27.80
2022-11-24T02:48:09.200Z,29.20
2022-11-24T02:50:37.333Z,27.70
2022-11-24T02:53:05.286Z,30.60
2022-11-24T02:55:33.467Z,28.70
2022-11-24T02:58:01.619Z,28.40
2022-11-24T03:00:31.715Z,29.20
2022-11-24T03:03:05.272Z,26.90
2022-11-24T03:05:33.492Z,27.20
2022-11-24T03:08:01.808Z,26.90
2022-11-24T03:10:34.430Z,29.20
2022-11-24T03:13:02.274Z,30.30
2022-11-24T03:15:30.238Z,28.20
2022-11-24T03:17:58.460Z,25.20
2022-11-24T03:20:31.146Z,28.40
2022-11-24T03:22:59.079Z,28.80
2022-11-24T03:25:27.141Z,27.00
2022-11-24T03:27:59.627Z,27.30
2022-11-24T03:30:27.565Z,27.00
2022-11-24T03:32:55.423Z,27.00
2022-11-24T03:35:28.236Z,27.00
2022-11-24T03:37:56.330Z,21.10
2022-11-24T03:40:24.383Z,27.90
2022-11-24T03:42:52.477Z,28.20
2022-11-24T03:45:44.870Z,26.40
2022-11-24T03:48:08.565Z,25.80
2022-11-24T03:50:36.600Z,27.90
2022-11-24T03:53:09.615Z,26.20
2022-11-24T03:55:37.795Z,27.40
2022-11-24T03:58:05.858Z,33.10
2022-11-24T04:00:33.757Z,30.10
2022-11-24T04:03:01.707Z,33.10
2022-11-24T04:05:39.460Z,32.80
2022-11-24T04:08:07.557Z,33.80
2022-11-24T04:10:39.647Z,33.20
2022-11-24T04:13:17.529Z,31.40
2022-11-24T04:15:50.476Z,45.50
2022-11-24T04:18:23.504Z,45.70
2022-11-24T04:20:56.436Z,59.80
2022-11-24T04:23:24.298Z,29.40
2022-11-24T04:25:52.140Z,34.00
2022-11-24T04:28:20.014Z,32.70
2022-11-24T04:30:47.952Z,31.10
2022-11-24T04:33:15.946Z,36.20
2022-11-24T04:35:43.861Z,32.80
2022-11-24T04:38:11.797Z,35.80
2022-11-24T04:40:39.709Z,35.10
2022-11-24T04:43:07.590Z,36.00
2022-11-24T04:45:37.232Z,34.70
2022-11-24T04:48:10.389Z,39.80
2022-11-24T04:50:41.728Z,41.40
2022-11-24T04:53:14.924Z,35.00
2022-11-24T04:55:47.604Z,36.20
2022-11-24T04:58:15.783Z,34.20
2022-11-24T05:00:43.849Z,36.40
2022-11-24T05:03:11.977Z,37.20
2022-11-24T05:05:41.325Z,40.50
2022-11-24T05:08:10.225Z,39.30
2022-11-24T05:10:40.633Z,44.70
2022-11-24T05:13:17.449Z,45.70
2022-11-24T05:15:45.278Z,45.20
2022-11-24T05:18:18.538Z,43.50
2022-11-24T05:20:46.588Z,40.00
2022-11-24T05:23:19.309Z,44.50
2022-11-24T05:25:47.953Z,42.90
2022-11-24T05:28:18.173Z,37.90
2022-11-24T05:30:48.347Z,42.50
2022-11-24T05:33:21.325Z,35.70
2022-11-24T05:35:54.282Z,37.30
2022-11-24T05:38:27.255Z,35.10
2022-11-24T05:40:55.074Z,35.10
2022-11-24T05:43:22.898Z,37.40
2022-11-24T05:45:52.378Z,37.20
2022-11-24T05:48:20.390Z,36.40
2022-11-24T05:50:57.847Z,39.00
2022-11-24T05:53:31.699Z,36.40
2022-11-24T05:58:35.076Z,37.10
2022-11-24T06:01:10.229Z,39.40
2022-11-24T06:03:37.996Z,44.00
2022-11-24T06:06:06.036Z,40.80
2022-11-24T06:08:35.404Z,41.90
2022-11-24T06:11:18.596Z,44.90
2022-11-24T06:13:51.845Z,43.40
2022-11-24T06:16:19.956Z,45.70
2022-11-24T06:18:47.844Z,47.40
2022-11-24T06:21:19.901Z,49.00
2022-11-24T06:23:50.243Z,45.80
2022-11-24T06:26:20.369Z,42.30
2022-11-24T06:28:48.411Z,47.10
2022-11-24T06:31:16.294Z,45.80
2022-11-24T06:33:46.012Z,45.00
2022-11-24T06:36:19.119Z,43.10
2022-11-24T06:38:46.949Z,44.80
2022-11-24T06:41:20.899Z,45.30
2022-11-24T06:43:48.858Z,40.50
2022-11-24T06:46:16.788Z,36.90
2022-11-24T06:48:44.688Z,34.80
2022-11-24T06:51:13.202Z,31.90
2022-11-24T06:53:46.085Z,31.10
2022-11-24T06:56:20.454Z,28.30
2022-11-24T06:58:55.328Z,32.90
2022-11-24T07:01:29.685Z,36.50
2022-11-24T07:04:00.773Z,33.10
2022-11-24T07:06:28.634Z,47.70
2022-11-24T07:08:56.469Z,42.10
2022-11-24T07:11:29.054Z,31.80
2022-11-24T07:14:02.138Z,31.90
2022-11-24T07:16:32.174Z,33.20
2022-11-24T07:19:01.854Z,33.50
2022-11-24T07:21:31.813Z,31.10
2022-11-24T07:23:59.693Z,29.20
2022-11-24T07:26:37.222Z,31.70
2022-11-24T07:29:10.003Z,30.50
2022-11-24T07:31:37.927Z,31.20
2022-11-24T07:34:10.952Z,31.00
2022-11-24T07:36:38.716Z,32.50
2022-11-24T07:39:15.811Z,32.40
2022-11-24T07:41:43.695Z,34.60
2022-11-24T07:44:11.452Z,32.80
2022-11-24T07:46:39.203Z,30.60
2022-11-24T07:49:07.011Z,29.70
2022-11-24T07:51:37.110Z,29.30
2022-11-24T07:54:04.920Z,31.10
2022-11-24T07:56:32.697Z,27.00
2022-11-24T07:59:05.384Z,30.90
2022-11-24T08:01:33.155Z,28.20
2022-11-24T08:04:05.862Z,29.80
2022-11-24T08:06:39.654Z,29.40
2022-11-24T08:09:10.303Z,29.20
2022-11-24T08:11:38.129Z,30.70
2022-11-24T08:14:05.935Z,27.70
2022-11-24T08:16:33.745Z,26.70
2022-11-24T08:19:01.571Z,26.20
2022-11-24T08:21:29.384Z,28.20
2022-11-24T08:24:02.161Z,30.00
2022-11-24T08:26:30.109Z,35.10
2022-11-24T08:29:03.425Z,31.90
2022-11-24T08:31:38.009Z,30.30
2022-11-24T08:34:10.841Z,28.80
2022-11-24T08:36:38.943Z,22.20
2022-11-24T08:39:06.747Z,28.80
2022-11-24T08:41:34.806Z,27.20
2022-11-24T08:44:02.550Z,29.70
2022-11-24T08:46:30.487Z,33.20
2022-11-24T08:48:58.324Z,32.40
2022-11-24T08:51:31.408Z,30.90
2022-11-24T08:54:05.109Z,25.40
2022-11-24T08:56:37.891Z,27.90
2022-11-24T08:59:05.741Z,29.40
2022-11-24T09:01:33.737Z,29.50
2022-11-24T09:04:06.222Z,31.50
2022-11-24T09:06:34.009Z,33.00
2022-11-24T09:09:06.957Z,29.30
2022-11-24T09:11:39.713Z,29.40
2022-11-24T09:14:07.647Z,22.00
2022-11-24T09:16:40.677Z,28.10
2022-11-24T09:19:08.485Z,29.30
2022-11-24T09:21:40.949Z,29.10
2022-11-24T09:24:16.573Z,30.50
2022-11-24T09:26:47.703Z,28.50
2022-11-24T09:29:20.408Z,29.80
2022-11-24T09:31:48.445Z,35.70
2022-11-24T09:34:21.106Z,29.30
2022-11-24T09:36:53.897Z,31.30
2022-11-24T09:39:21.799Z,31.50
2022-11-24T09:42:34.426Z,29.70
2022-11-24T09:45:26.299Z,28.80
2022-11-24T09:48:37.840Z,28.00
2022-11-24T09:51:11.920Z,29.20
2022-11-24T09:53:52.247Z,29.80
2022-11-24T09:56:36.005Z,31.90
2022-11-24T09:59:17.681Z,30.00
2022-11-24T10:01:52.593Z,29.90
2022-11-24T10:04:42.972Z,32.00
2022-11-24T10:07:42.301Z,29.50
2022-11-24T10:10:25.003Z,32.80
2022-11-24T10:13:35.566Z,30.20
2022-11-24T10:16:42.879Z,30.00
2022-11-24T10:19:47.107Z,26.40
2022-11-24T10:22:56.401Z,28.50
2022-11-24T10:25:52.852Z,28.00
2022-11-24T10:28:20.635Z,28.30
2022-11-24T10:31:05.042Z,26.80
2022-11-24T10:33:38.087Z,26.30
2022-11-24T10:36:42.148Z,23.50
2022-11-24T10:39:27.749Z,27.00
2022-11-24T10:42:20.353Z,27.50
2022-11-24T10:45:01.556Z,24.40
2022-11-24T10:47:34.879Z,25.80
2022-11-24T10:50:24.916Z,26.00
2022-11-24T10:53:17.438Z,25.30
2022-11-24T10:55:54.256Z,30.50
2022-11-24T10:58:38.025Z,24.80
2022-11-24T11:01:13.383Z,28.70
2022-11-24T11:03:55.357Z,26.50
2022-11-24T11:06:32.232Z,26.70
2022-11-24T11:09:09.363Z,27.90
2022-11-24T11:11:43.772Z,26.40
2022-11-24T11:14:17.567Z,27.90
2022-11-24T11:19:50.558Z,28.00
2022-11-24T11:22:28.599Z,28.50
2022-11-24T11:25:11.683Z,30.20
2022-11-24T11:27:45.277Z,28.70
2022-11-24T11:36:15.951Z,27.90
2022-11-24T11:38:49.053Z,29.00
2022-11-24T11:41:30.164Z,27.50
2022-11-24T11:44:26.144Z,27.30
2022-11-24T11:47:02.433Z,24.70
2022-11-24T11:49:30.327Z,28.00
2022-11-24T11:52:18.335Z,25.00
2022-11-24T11:55:24.260Z,25.80
2022-11-24T11:57:57.823Z,48.60
2022-11-24T12:00:25.655Z,29.20
2022-11-24T12:03:22.204Z,27.10
2022-11-24T12:06:02.857Z,29.20
2022-11-24T12:09:18.809Z,26.20
2022-11-24T12:11:40.073Z,26.40
2022-11-24T12:14:32.775Z,27.10
2022-11-24T12:17:27.914Z,27.30
2022-11-24T12:20:21.024Z,29.90
2022-11-24T12:23:04.014Z,25.90
2022-11-24T12:25:45.876Z,28.00
2022-11-24T12:28:52.594Z,27.20
2022-11-24T12:31:36.482Z,33.40
2022-11-24T12:37:03.293Z,31.10
2022-11-24T12:39:54.648Z,31.90
2022-11-24T12:43:00.422Z,31.40
2022-11-24T12:45:56.167Z,29.90
2022-11-24T12:49:08.917Z,29.30
2022-11-24T12:51:44.847Z,28.00
2022-11-24T12:54:20.066Z,30.50
2022-11-24T12:57:11.243Z,31.20
2022-11-24T12:59:48.426Z,29.70
2022-11-24T13:02:39.409Z,30.90
2022-11-24T13:05:57.465Z,29.50
2022-11-24T13:08:31.542Z,29.40
2022-11-24T13:11:21.074Z,30.70
2022-11-24T13:14:20.889Z,32.50
2022-11-24T13:19:53.151Z,31.80
2022-11-24T13:22:29.848Z,32.70
2022-11-24T13:25:36.894Z,31.10
2022-11-24T13:29:01.367Z,32.20
2022-11-24T13:31:26.587Z,32.20
2022-11-24T13:33:54.434Z,34.20
2022-11-24T13:36:25.396Z,30.60
2022-11-24T13:39:04.198Z,29.50
2022-11-24T13:41:32.085Z,31.10
2022-11-24T13:44:15.261Z,32.00
2022-11-24T13:47:26.302Z,32.90
2022-11-24T13:49:54.123Z,31.20
2022-11-24T13:52:48.855Z,33.70
2022-11-24T13:55:21.404Z,35.90
2022-11-24T13:58:00.504Z,32.00
2022-11-24T14:00:36.012Z,33.10
2022-11-24T14:03:13.781Z,36.90
2022-11-24T14:05:49.471Z,35.50
2022-11-24T14:08:29.490Z,35.00
2022-11-24T14:11:03.543Z,38.50
2022-11-24T14:13:37.106Z,36.40
2022-11-24T14:16:37.344Z,37.50
2022-11-24T14:19:18.872Z,38.50
2022-11-24T14:21:46.910Z,39.70
2022-11-24T14:24:39.864Z,38.00
2022-11-24T14:27:23.608Z,37.00
2022-11-24T14:30:04.136Z,36.80
2022-11-24T14:32:32.058Z,40.40
2022-11-24T14:34:59.930Z,40.60
2022-11-24T14:37:28.048Z,38.00
2022-11-24T14:39:55.902Z,40.00
2022-11-24T14:42:30.798Z,37.50
2022-11-24T14:45:04.701Z,40.20
2022-11-24T14:47:38.713Z,39.40
2022-11-24T14:50:23.691Z,40.30
2022-11-24T14:52:59.040Z,43.10
2022-11-24T14:55:32.011Z,37.70
2022-11-24T14:58:02.900Z,42.50
2022-11-24T15:00:36.359Z,47.00
2022-11-24T15:03:04.110Z,43.70
2022-11-24T15:06:05.117Z,41.00
2022-11-24T15:08:46.620Z,44.40
2022-11-24T15:11:19.909Z,42.40
2022-11-24T15:13:57.910Z,46.20
2022-11-24T15:16:32.569Z,43.70
2022-11-24T15:19:02.866Z,40.40
2022-11-24T15:21:40.589Z,47.40
2022-11-24T15:24:20.702Z,47.00
2022-11-24T15:27:02.866Z,42.80
2022-11-24T15:29:30.720Z,38.30
2022-11-24T15:31:58.668Z,35.40
2022-11-24T15:34:26.729Z,40.10
2022-11-24T15:36:54.546Z,39.80
2022-11-24T15:39:22.338Z,147.90
2022-11-24T15:41:50.335Z,61.50
2022-11-24T15:44:18.186Z,49.30
2022-11-24T15:46:46.058Z,41.50
2022-11-24T15:49:15.594Z,45.20
2022-11-24T15:51:45.915Z,44.80
2022-11-24T15:54:18.699Z,46.60
2022-11-24T15:56:47.166Z,47.00
2022-11-24T15:59:20.624Z,49.20
2022-11-24T16:01:51.332Z,53.40
2022-11-24T16:04:19.177Z,49.40
2022-11-24T16:06:47.104Z,43.10
2022-11-24T16:09:19.750Z,45.70
2022-11-24T16:11:47.581Z,43.40
2022-11-24T16:14:15.461Z,45.20
2022-11-24T16:16:48.127Z,47.00
2022-11-24T16:19:16.051Z,44.10
2022-11-24T16:21:47.099Z,51.20
2022-11-24T16:24:15.612Z,54.40
2022-11-24T16:26:43.411Z,55.70
2022-11-24T16:29:11.461Z,46.60
2022-11-24T16:31:39.336Z,52.20
2022-11-24T16:34:07.237Z,48.80
2022-11-24T16:36:35.193Z,51.30
2022-11-24T16:39:03.106Z,50.90
2022-11-24T16:41:30.980Z,47.40
2022-11-24T16:44:03.857Z,47.90
2022-11-24T16:46:32.042Z,45.30
2022-11-24T16:49:05.762Z,45.80
2022-11-24T16:54:13.075Z,42.60
2022-11-24T16:56:40.975Z,42.50
2022-11-24T16:59:08.963Z,43.60
2022-11-24T17:01:41.884Z,48.60
2022-11-24T17:04:12.838Z,50.50
2022-11-24T17:06:45.663Z,52.90
2022-11-24T17:09:13.551Z,58.30
2022-11-24T17:11:46.098Z,64.50
2022-11-24T17:14:19.346Z,57.40
2022-11-24T17:16:52.007Z,51.80
2022-11-24T17:19:25.389Z,85.80
2022-11-24T17:21:59.149Z,67.80
2022-11-24T17:24:29.091Z,60.70
2022-11-24T17:26:57.021Z,65.50
2022-11-24T17:29:24.954Z,68.70
2022-11-24T17:31:52.869Z,74.40
2022-11-24T17:34:20.796Z,74.30
2022-11-24T17:36:48.630Z,79.50
2022-11-24T17:39:20.311Z,61.70
2022-11-24T17:41:51.273Z,59.90
2022-11-24T17:44:19.297Z,63.30
2022-11-24T17:46:47.263Z,48.70
2022-11-24T17:49:15.786Z,51.70
2022-11-24T17:51:47.240Z,56.20
2022-11-24T17:57:03.116Z,61.30
2022-11-24T17:59:35.831Z,64.40
2022-11-24T18:02:11.803Z,70.50
2022-11-24T18:04:40.979Z,58.10
2022-11-24T18:07:08.897Z,57.20
2022-11-24T18:09:42.705Z,54.20
2022-11-24T18:12:10.604Z,53.10
2022-11-24T18:14:38.581Z,55.80
2022-11-24T18:17:06.683Z,65.50
2022-11-24T18:19:39.212Z,65.30
2022-11-24T18:22:08.871Z,60.90
2022-11-24T18:24:36.954Z,53.10
2022-11-24T18:27:09.496Z,51.60
2022-11-24T18:29:37.376Z,48.60
2022-11-24T18:32:09.924Z,38.80
2022-11-24T18:34:37.934Z,43.80
2022-11-24T18:37:05.939Z,41.90
2022-11-24T18:39:33.843Z,39.40
2022-11-24T18:42:01.728Z,37.50
2022-11-24T18:44:29.650Z,37.70
2022-11-24T18:46:57.481Z,42.10
2022-11-24T18:49:25.291Z,42.70
2022-11-24T18:51:55.986Z,44.10
2022-11-24T18:54:31.297Z,40.00
2022-11-24T18:57:03.339Z,35.70
2022-11-24T18:59:35.191Z,34.70
2022-11-24T19:02:03.103Z,35.70
2022-11-24T19:04:35.763Z,37.90
2022-11-24T19:07:08.391Z,37.30
2022-11-24T19:09:40.947Z,34.00
2022-11-24T19:12:10.544Z,35.60
2022-11-24T19:14:43.354Z,39.40
2022-11-24T19:17:14.436Z,33.70
2022-11-24T19:19:42.463Z,35.60
2022-11-24T19:22:20.510Z,36.80
2022-11-24T19:24:52.374Z,37.50
2022-11-24T19:27:22.051Z,34.60
2022-11-24T19:29:49.820Z,35.00
2022-11-24T19:32:23.748Z,34.90
2022-11-24T19:34:51.758Z,35.90
2022-11-24T19:37:19.562Z,34.70
2022-11-24T19:39:47.394Z,41.50
2022-11-24T19:42:15.423Z,41.80
2022-11-24T19:44:43.211Z,40.10
2022-11-24T19:47:11.172Z,44.10
2022-11-24T19:49:38.946Z,41.20
2022-11-24T19:52:09.619Z,46.50
2022-11-24T19:54:37.540Z,48.90
2022-11-24T19:57:07.053Z,43.30
2022-11-24T19:59:34.809Z,43.80
2022-11-24T20:02:02.846Z,44.60
2022-11-24T20:04:40.732Z,44.90
2022-11-24T20:07:13.596Z,45.60
2022-11-24T20:09:41.401Z,44.00
2022-11-24T20:12:15.491Z,49.50
2022-11-24T20:14:43.292Z,46.00
2022-11-24T20:17:15.850Z,55.30
2022-11-24T20:19:43.653Z,52.70
2022-11-24T20:22:16.129Z,51.60
2022-11-24T20:24:43.974Z,52.70
2022-11-24T20:27:11.768Z,50.20
2022-11-24T20:29:45.244Z,46.20
2022-11-24T20:32:21.266Z,51.20
2022-11-24T20:34:54.049Z,51.20
2022-11-24T20:37:25.201Z,53.60
2022-11-24T20:39:52.955Z,53.60
2022-11-24T20:42:21.302Z,55.30
2022-11-24T20:44:49.321Z,55.80
2022-11-24T20:47:22.008Z,49.30
2022-11-24T20:49:49.783Z,59.00
2022-11-24T20:52:17.571Z,55.70
2022-11-24T20:54:51.395Z,59.20
2022-11-24T20:57:19.204Z,56.60
2022-11-24T20:59:51.732Z,59.30
2022-11-24T21:02:23.093Z,55.70
2022-11-24T21:04:51.209Z,53.50
2022-11-24T21:07:19.003Z,56.80
2022-11-24T21:09:46.815Z,59.10
2022-11-24T21:12:14.644Z,52.40
2022-11-24T21:14:47.086Z,54.90
2022-11-24T21:17:14.905Z,53.50
2022-11-24T21:19:42.676Z,53.30
2022-11-24T21:22:10.484Z,53.80
2022-11-24T21:24:38.238Z,54.80
2022-11-24T21:27:06.082Z,56.70
2022-11-24T21:29:34.089Z,50.40
2022-11-24T21:32:02.063Z,54.40
2022-11-24T21:34:30.269Z,53.30
2022-11-24T21:36:58.129Z,51.30
2022-11-24T21:39:26.056Z,51.60
2022-11-24T21:41:54.065Z,56.20
2022-11-24T21:44:22.340Z,53.80
2022-11-24T21:46:55.690Z,56.20
2022-11-24T21:51:56.171Z,52.30
2022-11-24T21:54:24.586Z,55.00
2022-11-24T21:56:53.859Z,57.30
2022-11-24T21:59:22.617Z,54.90
2022-11-24T22:01:50.718Z,50.40
2022-11-24T22:04:18.612Z,59.20
2022-11-24T22:06:46.447Z,57.10
2022-11-24T22:09:18.016Z,52.70
2022-11-24T22:11:52.655Z,50.90
2022-11-24T22:14:20.406Z,58.40
2022-11-24T22:16:48.315Z,60.30
2022-11-24T22:19:16.128Z,56.10
2022-11-24T22:21:45.055Z,58.30
2022-11-24T22:24:12.894Z,57.30
2022-11-24T22:26:40.843Z,58.20
2022-11-24T22:29:08.728Z,60.30
2022-11-24T22:31:36.756Z,63.10
2022-11-24T22:34:05.667Z,63.20
2022-11-24T22:36:33.545Z,57.70
2022-11-24T22:39:05.087Z,63.30
2022-11-24T22:41:35.432Z,64.40
2022-11-24T22:44:04.938Z,61.30
2022-11-24T22:46:32.971Z,58.50
2022-11-24T22:49:02.372Z,65.20
2022-11-24T22:51:34.210Z,62.00
2022-11-24T22:54:04.642Z,58.70
2022-11-24T22:56:33.982Z,59.30
2022-11-24T22:59:04.752Z,56.30
2022-11-24T23:01:34.328Z,57.30
2022-11-24T23:04:04.171Z,53.00
2022-11-24T23:06:33.882Z,59.40
2022-11-24T23:09:04.114Z,53.70
2022-11-24T23:11:38.382Z,56.50
2022-11-24T23:14:12.326Z,57.00
2022-11-24T23:19:09.276Z,55.50
2022-11-24T23:21:39.124Z,53.50
2022-11-24T23:24:09.953Z,56.80
2022-11-24T23:26:41.469Z,58.00
2022-11-24T23:29:11.971Z,56.40
2022-11-24T23:31:40.331Z,51.80
2022-11-24T23:34:10.215Z,55.60
2022-11-24T23:36:39.272Z,55.20
2022-11-24T23:39:12.220Z,46.10
2022-11-24T23:41:40.432Z,48.00
2022-11-24T23:44:08.355Z,52.50
2022-11-24T23:46:36.168Z,48.80
2022-11-24T23:49:03.920Z,47.60
2022-11-24T23:51:33.511Z,50.40
2022-11-24T23:54:02.487Z,50.00
2022-11-24T23:56:33.220Z,48.20
2022-11-24T23:59:04.976Z,48.60
